ADDS METAR Data INFO
IDs: Format: Raw Decoded Include TAF

Data at: 0903 UTC 20 Oct 2017

KELO 200853Z AUTO 16003KT 10SM CLR 11/03 A2984 RMK AO2
KELO 200833Z AUTO 21004KT 10SM CLR 13/04 A2984 RMK AO2
KELO 200813Z AUTO 18003KT 10SM CLR 11/03 A2985 RMK AO2
KELO 200753Z AUTO 00000KT 10SM CLR 11/03 A2985 RMK AO2
KELO 200733Z AUTO 17003KT 10SM CLR 12/03 A2985 RMK AO2
KELO 200713Z AUTO 18004KT 10SM CLR 13/02 A2985 RMK AO2
KELO 200653Z AUTO 19004KT 10SM CLR 13/02 A2986 RMK AO2
KELO 200633Z AUTO 20004KT 10SM CLR 13/02 A2986 RMK AO2
KELO 200613Z AUTO 19005KT 10SM CLR 14/02 A2986 RMK AO2
KELO 200553Z AUTO 19006KT 10SM CLR 14/01 A2986 RMK AO2
KELO 200533Z AUTO 20007KT 10SM CLR 14/01 A2987 RMK AO2
KELO 200513Z AUTO 21007KT 10SM CLR 14/01 A2987 RMK AO2
KELO 200453Z AUTO 20005KT 10SM CLR 14/01 A2987 RMK AO2
KELO 200433Z AUTO 20006KT 10SM CLR 14/00 A2988 RMK AO2
KELO 200413Z AUTO 21005KT 10SM CLR 14/00 A2988 RMK AO2
KELO 200353Z AUTO 21006KT 10SM CLR 14/00 A2988 RMK AO2
KELO 200333Z AUTO 20006KT 10SM CLR 14/00 A2988 RMK AO2
KELO 200313Z AUTO 20007KT 10SM CLR 14/00 A2988 RMK AO2
KELO 200253Z AUTO 19006KT 10SM CLR 14/00 A2988 RMK AO2
KELO 200233Z AUTO 18006KT 10SM CLR 14/00 A2988 RMK AO2
KELO 200214Z AUTO 18007KT 10SM CLR 14/M01 A2988 RMK AO2
KELO 200153Z AUTO 19006KT 10SM CLR 14/M01 A2988 RMK AO2
KELO 200133Z AUTO 17005KT 10SM CLR 13/M01 A2988 RMK AO2
KELO 200113Z AUTO 18005KT 10SM CLR 13/M01 A2989 RMK AO2
KELO 200053Z AUTO 18005KT 10SM CLR 14/M01 A2989 RMK AO2
KELO 200034Z AUTO 18005KT 10SM CLR 14/M01 A2989 RMK AO2
KELO 200013Z AUTO 17004KT 10SM CLR 14/M01 A2989 RMK AO2
KELO 192353Z AUTO 18004KT 10SM CLR 15/M01 A2989 RMK AO2
KELO 192334Z AUTO 18005KT 10SM CLR 16/M01 A2988 RMK AO2
KELO 192313Z AUTO 17005KT 10SM CLR 16/M01 A2988 RMK AO2
KELO 192253Z AUTO 19006KT 10SM CLR 17/M01 A2988 RMK AO2
KELO 192234Z AUTO 17007KT 10SM CLR 17/M01 A2987 RMK AO2
KELO 192213Z AUTO 19006KT 10SM CLR 18/M02 A2987 RMK AO2
KELO 192153Z AUTO 19005KT 10SM CLR 17/M02 A2988 RMK AO2
KELO 192134Z AUTO 21005KT 10SM CLR 18/M02 A2988 RMK AO2
KELO 192113Z AUTO 20005KT 10SM CLR 18/M02 A2989 RMK AO2
KELO 192053Z AUTO 19006G14KT 10SM CLR 18/M03 A2989 RMK AO2
KELO 192033Z AUTO 21006KT 10SM CLR 18/M03 A2989 RMK AO2
KELO 192013Z AUTO 20009KT 10SM CLR 17/M04 A2990 RMK AO2
KELO 191953Z AUTO 19009KT 10SM CLR 17/M04 A2991 RMK AO2
KELO 191933Z AUTO 21006KT 10SM CLR 17/M04 A2992 RMK AO2
KELO 191913Z AUTO 23008KT 10SM CLR 17/M05 A2992 RMK AO2
KELO 191853Z AUTO 25006KT 10SM CLR 17/M06 A2994 RMK AO2
KELO 191833Z AUTO 23009KT 10SM CLR 16/M06 A2995 RMK AO2
KELO 191758Z AUTO 24012G17KT 10SM CLR 15/M06 A2996 RMK AO2
KELO 191733Z AUTO 24008KT 10SM CLR 14/M07 A2997 RMK AO2
KELO 191713Z AUTO 24008KT 210V270 10SM CLR 14/M07 A2997 RMK AO2
KELO 191653Z AUTO 26008KT 10SM CLR 13/M08 A2997 RMK AO2
KELO 191633Z AUTO 26009KT 10SM CLR 12/M09 A2997 RMK AO2
KELO 191613Z AUTO 26010KT 10SM CLR 11/M08 A2997 RMK AO2
KELO 191553Z AUTO 26010G17KT 10SM CLR 10/M08 A2996 RMK AO2
KELO 191533Z AUTO 26008KT 10SM CLR 10/M07 A2996 RMK AO2
KELO 191513Z AUTO 26008KT 10SM CLR 09/M06 A2995 RMK AO2
KELO 191453Z AUTO 24007KT 10SM CLR 08/M06 A2995 RMK AO2
KELO 191433Z AUTO 26007KT 10SM CLR 08/M05 A2994 RMK AO2
KELO 191413Z AUTO 25009KT 10SM CLR 07/M06 A2994 RMK AO2
KELO 191354Z AUTO 26007KT 10SM CLR 07/M06 A2994 RMK AO2
KELO 191333Z AUTO 25007KT 10SM CLR 06/M06 A2993 RMK AO2
KELO 191313Z AUTO 25007KT 10SM CLR 06/M06 A2992 RMK AO2
KELO 191253Z AUTO 25007KT 10SM CLR 06/M06 A2992 RMK AO2
KELO 191233Z AUTO 25008KT 10SM CLR 06/M06 A2991 RMK AO2
KELO 191213Z AUTO 25007KT 10SM CLR 05/M06 A2990 RMK AO2
KELO 191153Z AUTO 26006KT 10SM CLR 05/M06 A2989 RMK AO2
KELO 191133Z AUTO 26006KT 10SM CLR 05/M06 A2989 RMK AO2
KELO 191113Z AUTO 26006KT 10SM CLR 06/M07 A2988 RMK AO2
KELO 191053Z AUTO 26008KT 10SM CLR 06/M07 A2987 RMK AO2
KELO 191033Z AUTO 26007KT 10SM CLR 06/M07 A2987 RMK AO2
KELO 191013Z AUTO 25009KT 10SM CLR 06/M07 A2986 RMK AO2
KELO 190953Z AUTO 25008KT 10SM CLR 07/M07 A2986 RMK AO2
KELO 190934Z AUTO 25007KT 10SM CLR 06/M07 A2984 RMK AO2
KELO 190913Z AUTO 25009KT 10SM CLR 07/M07 A2984 RMK AO2
KELO 190853Z AUTO 25009G15KT 10SM CLR 07/M07 A2983 RMK AO2
KELO 190834Z AUTO 24009KT 10SM CLR 07/M08 A2983 RMK AO2
KELO 190813Z AUTO 25008KT 10SM CLR 07/M08 A2983 RMK AO2
KELO 190753Z AUTO 25009KT 10SM CLR 07/M08 A2982 RMK AO2
KELO 190734Z AUTO 25010G15KT 10SM CLR 08/M08 A2982 RMK AO2
KELO 190713Z AUTO 25010G17KT 10SM CLR 08/M08 A2982 RMK AO2
KELO 190653Z AUTO 26011G17KT 10SM CLR 08/M09 A2981 RMK AO2
KELO 190634Z AUTO 26010G18KT 10SM CLR 08/M09 A2981 RMK AO2
KELO 190613Z AUTO 26012G16KT 10SM CLR 08/M09 A2980 RMK AO2
KELO 190553Z AUTO 26012G17KT 10SM CLR 09/M09 A2979 RMK AO2
KELO 190534Z AUTO 26012G21KT 10SM CLR 08/M09 A2979 RMK AO2
KELO 190513Z AUTO 26011G17KT 10SM CLR 08/M09 A2979 RMK AO2
KELO 190453Z AUTO 26011G17KT 10SM CLR 09/M10 A2979 RMK AO2
KELO 190434Z AUTO 26011G16KT 10SM CLR 09/M10 A2979 RMK AO2
KELO 190413Z AUTO 26013G19KT 10SM CLR 09/M10 A2978 RMK AO2
KELO 190353Z AUTO 26013G22KT 10SM CLR 09/M10 A2978 RMK AO2
KELO 190334Z AUTO 26013G20KT 10SM CLR 09/M10 A2978 RMK AO2
KELO 190313Z AUTO 27013G20KT 10SM CLR 09/M11 A2977 RMK AO2
KELO 190253Z AUTO 26011G18KT 10SM CLR 09/M11 A2977 RMK AO2
KELO 190234Z AUTO 25011G15KT 10SM CLR 09/M11 A2976 RMK AO2
KELO 190213Z AUTO 27014G22KT 10SM CLR 10/M11 A2976 RMK AO2
KELO 190153Z AUTO 26013G23KT 10SM CLR 11/M11 A2975 RMK AO2
KELO 190134Z AUTO 27014G22KT 10SM CLR 11/M11 A2975 RMK AO2
KELO 190113Z AUTO 27009G19KT 10SM CLR 11/M11 A2975 RMK AO2
KELO 190053Z AUTO 26009KT 10SM CLR 11/M11 A2974 RMK AO2
KELO 190028Z AUTO 27011G18KT 10SM CLR 11/M11 A2974 RMK AO2
KELO 190014Z AUTO 26012G19KT 10SM CLR 12/M12 A2973 RMK AO2
KELO 182353Z AUTO 26011G16KT 10SM CLR 12/M11 A2972 RMK AO2
KELO 182334Z AUTO 26010G19KT 10SM CLR 12/M11 A2971 RMK AO2
KELO 182313Z AUTO 26014G21KT 10SM CLR 13/M12 A2971 RMK AO2
KELO 182253Z AUTO 26014G24KT 10SM CLR 13/M13 A2969 RMK AO2
KELO 182234Z AUTO 25020G28KT 10SM CLR 14/M14 A2969 RMK AO2
KELO 182213Z AUTO 27015G32KT 10SM CLR 14/M14 A2969 RMK AO2
KELO 182153Z AUTO 26010G22KT 10SM CLR 14/M13 A2968 RMK AO2
KELO 182134Z AUTO 27020G28KT 10SM CLR 16/M13 A2966 RMK AO2
KELO 182113Z AUTO 26018G23KT 10SM CLR 17/M11 A2966 RMK AO2